Time;durP1;ratioP1;P1;durP2;ratioP2;P2;SDS_P1;SDS_P2;PMS_P1;PMS_P2;Temp;Humidity;BMP_temperature;BMP_pressure;BME280_temperature;BME280_humidity;BME280_pressure;Samples;Min_cycle;Max_cycle;Signal;HPM_P1;HPM_P2
2023/12/30 00:01:26;;;;;;;7.87;3.50;;;;;;;9.12;83.59;100586.00;5036315;28;20570;-72
2023/12/30 00:03:53;;;;;;;14.57;2.97;;;;;;;9.11;83.31;100587.00;5036233;28;20656;-72
2023/12/30 00:06:19;;;;;;;5.20;2.97;;;;;;;9.13;82.88;100585.00;5036224;28;20270;-72
2023/12/30 00:08:46;;;;;;;8.63;2.50;;;;;;;9.12;83.19;100587.84;5036175;28;20192;-72
2023/12/30 00:11:14;;;;;;;12.23;2.83;;;;;;;9.06;83.62;100586.59;5036023;28;20219;-72
2023/12/30 00:13:40;;;;;;;12.40;3.43;;;;;;;9.10;83.21;100584.47;5036337;28;20242;-72
2023/12/30 00:16:07;;;;;;;15.13;3.93;;;;;;;9.10;82.61;100593.31;5035933;28;20683;-72
2023/12/30 00:18:35;;;;;;;6.77;3.57;;;;;;;9.11;82.69;100604.81;5036020;28;20195;-72
2023/12/30 00:21:02;;;;;;;3.93;3.50;;;;;;;9.10;82.68;100603.13;5035864;28;20208;-72
2023/12/30 00:23:29;;;;;;;13.90;3.57;;;;;;;9.08;82.58;100613.13;5036171;28;20196;-72
2023/12/30 00:26:06;;;;;;;4.93;2.97;;;;;;;9.03;82.68;100610.88;5036671;28;20222;-72
2023/12/30 00:28:32;;;;;;;7.40;3.67;;;;;;;9.05;82.67;100616.91;5035825;28;20600;-72
2023/12/30 00:30:59;;;;;;;9.10;2.53;;;;;;;9.01;82.43;100612.84;5035727;28;20204;-73
2023/12/30 00:33:25;;;;;;;7.60;3.50;;;;;;;9.00;82.48;100602.31;5035763;28;20554;-72
2023/12/30 00:35:52;;;;;;;6.93;2.87;;;;;;;8.92;83.11;100621.69;5035632;28;20218;-72
2023/12/30 00:38:18;;;;;;;9.23;3.23;;;;;;;8.92;82.82;100618.19;5035671;28;20192;-72
2023/12/30 00:40:50;;;;;;;9.87;3.13;;;;;;;8.93;82.75;100622.53;5035835;28;20203;-72
2023/12/30 00:43:17;;;;;;;8.33;3.80;;;;;;;8.87;82.84;100628.47;5035822;28;20249;-72
2023/12/30 00:45:44;;;;;;;12.27;3.30;;;;;;;8.87;82.76;100625.81;5035493;28;20199;-72
2023/12/30 00:48:13;;;;;;;6.33;3.93;;;;;;;8.89;81.83;100637.16;5035749;28;20613;-72
2023/12/30 00:50:40;;;;;;;19.03;3.60;;;;;;;8.91;82.01;100621.88;5035399;28;20241;-72
2023/12/30 00:53:06;;;;;;;7.83;3.97;;;;;;;8.92;81.79;100644.84;5034095;28;20242;-72
2023/12/30 00:55:33;;;;;;;11.20;3.33;;;;;;;8.89;81.84;100643.31;5035496;28;20298;-72
2023/12/30 00:57:59;;;;;;;7.63;3.90;;;;;;;8.87;81.25;100644.47;5032865;28;20206;-72
2023/12/30 01:00:26;;;;;;;9.57;3.73;;;;;;;8.84;80.79;100650.06;5035149;28;20699;-72
2023/12/30 01:02:52;;;;;;;12.83;3.23;;;;;;;8.83;81.35;100653.69;5035177;28;20188;-72
2023/12/30 01:05:19;;;;;;;14.20;5.03;;;;;;;8.88;80.48;100659.44;5035140;28;20180;-72
2023/12/30 01:07:46;;;;;;;11.87;2.87;;;;;;;8.78;81.45;100659.47;5035138;28;20533;-72
2023/12/30 01:10:16;;;;;;;8.53;4.03;;;;;;;8.80;81.87;100669.97;5035080;28;20261;-72
2023/12/30 01:12:43;;;;;;;6.00;3.47;;;;;;;8.82;81.47;100666.22;5035278;28;20186;-72
2023/12/30 01:15:09;;;;;;;6.10;3.03;;;;;;;8.75;82.05;100659.75;5034840;28;20200;-72
2023/12/30 01:17:36;;;;;;;7.17;3.17;;;;;;;8.79;82.37;100665.63;5034727;28;20202;-72
2023/12/30 01:20:03;;;;;;;8.83;3.27;;;;;;;8.77;82.77;100660.47;5034826;28;20637;-72
2023/12/30 01:22:29;;;;;;;5.33;2.90;;;;;;;8.76;82.61;100658.78;5034817;28;20192;-72
2023/12/30 01:24:56;;;;;;;6.13;3.47;;;;;;;8.76;82.70;100669.44;5034714;28;20279;-72
2023/12/30 01:27:22;;;;;;;12.13;2.90;;;;;;;8.78;82.36;100667.47;5035247;28;20531;-71
2023/12/30 01:29:49;;;;;;;8.40;2.57;;;;;;;8.73;82.79;100674.22;5034593;28;20638;-72
2023/12/30 01:32:15;;;;;;;6.40;2.87;;;;;;;8.61;82.46;100670.84;5034622;28;20242;-72
2023/12/30 01:34:42;;;;;;;20.13;3.33;;;;;;;8.64;82.61;100687.41;5034812;28;20188;-72
2023/12/30 01:37:08;;;;;;;3.67;2.83;;;;;;;8.58;83.05;100690.59;5034722;28;20574;-71
2023/12/30 01:39:35;;;;;;;12.63;3.30;;;;;;;8.59;82.36;100705.63;5034425;28;20632;-72
2023/12/30 01:42:01;;;;;;;15.63;3.33;;;;;;;8.59;81.95;100700.28;5034431;28;20184;-72
2023/12/30 01:44:28;;;;;;;11.33;2.57;;;;;;;8.62;82.42;100707.16;5034420;28;20192;-72
2023/12/30 01:46:55;;;;;;;10.87;2.50;;;;;;;8.61;82.63;100703.66;5034335;28;20188;-72
2023/12/30 01:49:22;;;;;;;4.23;2.60;;;;;;;8.60;82.58;100717.97;5034199;28;20203;-72
2023/12/30 01:51:51;;;;;;;9.20;2.50;;;;;;;8.55;82.82;100725.53;5034242;28;20258;-72
2023/12/30 01:54:17;;;;;;;6.07;3.00;;;;;;;8.57;82.80;100722.75;5032933;28;20192;-72
2023/12/30 01:56:44;;;;;;;2.77;2.10;;;;;;;8.59;82.68;100726.94;5034077;28;20211;-72
2023/12/30 01:59:13;;;;;;;10.90;3.37;;;;;;;8.59;82.33;100734.09;5032783;28;20196;-72
2023/12/30 02:01:40;;;;;;;7.67;3.03;;;;;;;8.54;83.04;100731.00;5033036;28;20204;-72
2023/12/30 02:04:07;;;;;;;8.80;2.70;;;;;;;8.58;82.09;100724.41;5034030;28;20176;-72
2023/12/30 02:06:34;;;;;;;7.87;2.47;;;;;;;8.53;82.67;100724.00;5034224;28;20187;-71
2023/12/30 02:09:02;;;;;;;5.60;2.53;;;;;;;8.54;81.83;100729.16;5032273;28;20188;-72
2023/12/30 02:11:28;;;;;;;10.57;3.13;;;;;;;8.55;81.82;100732.69;5034157;28;20188;-71
2023/12/30 02:13:55;;;;;;;12.50;2.47;;;;;;;8.55;81.71;100724.69;5032596;28;20196;-71
2023/12/30 02:16:21;;;;;;;11.17;3.23;;;;;;;8.50;81.81;100735.75;5032623;28;20619;-71
2023/12/30 02:18:48;;;;;;;2.73;2.37;;;;;;;8.50;81.96;100729.59;5032444;28;20199;-71
2023/12/30 02:21:15;;;;;;;7.70;2.50;;;;;;;8.50;82.22;100732.25;5034662;28;20554;-71
2023/12/30 02:23:41;;;;;;;10.67;2.37;;;;;;;8.46;81.86;100731.69;5033703;28;20191;-71
2023/12/30 02:26:08;;;;;;;6.57;2.47;;;;;;;8.46;82.17;100747.66;5033667;28;20758;-71
2023/12/30 02:28:35;;;;;;;13.03;2.93;;;;;;;8.45;82.12;100743.31;5032385;28;20196;-71
2023/12/30 02:31:03;;;;;;;15.13;3.47;;;;;;;8.41;82.60;100741.06;5032275;28;20306;-71
2023/12/30 02:33:30;;;;;;;9.10;3.23;;;;;;;8.38;82.71;100736.03;5033544;28;20187;-71
2023/12/30 02:35:57;;;;;;;8.90;2.73;;;;;;;8.41;83.00;100743.72;5033431;28;20204;-71
2023/12/30 02:38:24;;;;;;;10.07;3.03;;;;;;;8.28;83.19;100749.28;5033764;28;20554;-71
2023/12/30 02:40:50;;;;;;;9.17;3.10;;;;;;;8.30;82.94;100736.72;5033417;28;20211;-71
2023/12/30 02:43:17;;;;;;;3.90;2.27;;;;;;;8.25;83.44;100747.75;5033417;28;20656;-71
2023/12/30 02:45:43;;;;;;;5.40;2.70;;;;;;;8.22;83.37;100742.69;5033313;28;20679;-71
2023/12/30 02:48:09;;;;;;;5.30;2.80;;;;;;;8.22;83.10;100744.50;5033627;28;20242;-71
2023/12/30 02:50:36;;;;;;;8.03;3.10;;;;;;;8.19;83.63;100744.75;5033232;28;20258;-71
2023/12/30 02:53:03;;;;;;;10.20;2.73;;;;;;;8.11;83.64;100747.25;5033601;28;20180;-71
2023/12/30 02:55:29;;;;;;;6.63;2.80;;;;;;;8.09;83.87;100752.75;5033422;28;20196;-71
2023/12/30 02:57:57;;;;;;;6.33;2.77;;;;;;;8.09;84.31;100760.72;5031998;28;20184;-71
2023/12/30 03:00:24;;;;;;;10.30;3.10;;;;;;;8.18;83.84;100759.06;5033202;28;20239;-71
2023/12/30 03:02:51;;;;;;;6.77;2.60;;;;;;;8.16;83.98;100763.69;5033167;28;20192;-71
2023/12/30 03:05:17;;;;;;;12.63;3.27;;;;;;;8.18;83.87;100762.59;5033150;28;20608;-71
2023/12/30 03:07:44;;;;;;;13.57;3.83;;;;;;;8.19;84.00;100766.06;5033129;28;20184;-71
2023/12/30 03:10:11;;;;;;;7.90;4.37;;;;;;;8.21;84.26;100764.97;5033009;28;20215;-71
2023/12/30 03:12:39;;;;;;;14.20;4.03;;;;;;;8.24;84.32;100759.34;5031806;28;20196;-71
2023/12/30 03:15:07;;;;;;;16.80;4.23;;;;;;;8.22;84.32;100764.00;5033036;28;20544;-71
2023/12/30 03:17:34;;;;;;;8.17;3.43;;;;;;;8.25;84.04;100769.03;5032850;28;20206;-71
2023/12/30 03:20:03;;;;;;;20.00;3.30;;;;;;;8.19;84.22;100779.38;5033858;28;20218;-71
2023/12/30 03:22:32;;;;;;;11.33;4.13;;;;;;;8.18;84.13;100778.56;5037029;28;20188;-71
2023/12/30 03:24:58;;;;;;;14.77;4.13;;;;;;;8.21;83.77;100772.97;5035731;28;20249;-71
2023/12/30 03:27:25;;;;;;;5.97;3.87;;;;;;;8.23;83.80;100770.16;5037228;28;20187;-71
2023/12/30 03:29:52;;;;;;;15.27;4.23;;;;;;;8.17;83.93;100770.69;5035615;28;20265;-72
2023/12/30 03:32:18;;;;;;;15.30;4.07;;;;;;;8.13;83.99;100771.94;5037134;28;20678;-71
2023/12/30 03:34:45;;;;;;;11.23;2.90;;;;;;;8.13;84.13;100778.13;5036815;28;20738;-71
2023/12/30 03:37:11;;;;;;;9.70;3.63;;;;;;;8.12;84.52;100776.44;5036712;28;20705;-71
2023/12/30 03:39:38;;;;;;;10.60;3.23;;;;;;;8.13;83.95;100777.28;5037064;28;20208;-71
2023/12/30 03:42:04;;;;;;;9.17;3.50;;;;;;;8.10;83.15;100778.41;5035445;28;20192;-71
2023/12/30 03:44:31;;;;;;;15.60;3.33;;;;;;;8.08;83.72;100771.50;5037181;28;20194;-71
2023/12/30 03:46:57;;;;;;;19.23;3.30;;;;;;;8.12;83.22;100772.91;5036870;28;20187;-71
2023/12/30 03:49:24;;;;;;;11.30;3.33;;;;;;;8.12;83.31;100780.91;5036480;28;20273;-71
2023/12/30 03:51:50;;;;;;;13.17;3.70;;;;;;;8.02;83.42;100774.72;5036492;28;20203;-71
2023/12/30 03:54:17;;;;;;;9.53;2.53;;;;;;;8.06;83.47;100776.94;5036754;28;20271;-74
2023/12/30 03:56:43;;;;;;;15.97;3.30;;;;;;;8.08;83.79;100788.31;5035067;28;20211;-74
2023/12/30 03:59:10;;;;;;;7.07;3.23;;;;;;;8.10;83.78;100786.38;5036332;28;20184;-73
2023/12/30 04:01:41;;;;;;;11.07;2.93;;;;;;;8.07;84.13;100789.28;5035884;28;20227;-73
2023/12/30 04:04:07;;;;;;;10.97;3.50;;;;;;;8.14;84.22;100786.94;5036838;28;20514;-73
2023/12/30 04:06:34;;;;;;;5.53;3.30;;;;;;;8.13;84.10;100780.78;5035210;28;20672;-73
2023/12/30 04:09:00;;;;;;;12.50;3.00;;;;;;;8.12;84.48;100794.22;5036427;28;20344;-73
2023/12/30 04:11:27;;;;;;;4.77;2.97;;;;;;;8.16;84.73;100790.31;5034903;28;20199;-73
2023/12/30 04:13:54;;;;;;;8.53;3.20;;;;;;;8.15;85.51;100802.78;5036121;28;20190;-73
2023/12/30 04:16:20;;;;;;;5.53;2.67;;;;;;;8.01;86.36;100839.59;5034736;28;20762;-72
2023/12/30 04:18:47;;;;;;;5.80;2.13;;;;;;;7.26;83.61;100831.78;5034841;28;20238;-74
2023/12/30 04:21:13;;;;;;;2.53;2.43;;;;;;;6.82;84.14;100815.06;5034646;28;20219;-74
2023/12/30 04:23:40;;;;;;;2.80;2.60;;;;;;;6.63;85.02;100803.38;5034675;28;20200;-74
2023/12/30 04:26:07;;;;;;;2.67;2.50;;;;;;;6.42;86.18;100821.91;5036181;28;20179;-74
2023/12/30 04:28:33;;;;;;;2.60;2.33;;;;;;;6.45;86.50;100810.19;5034597;28;20199;-74
2023/12/30 04:31:00;;;;;;;2.73;2.30;;;;;;;6.46;86.98;100812.72;5034264;28;20216;-74
2023/12/30 04:33:27;;;;;;;13.17;3.20;;;;;;;6.45;86.88;100811.00;5034776;28;20735;-73
2023/12/30 04:35:53;;;;;;;3.00;2.77;;;;;;;6.43;86.77;100810.31;5035627;28;20187;-73
2023/12/30 04:38:20;;;;;;;3.57;3.37;;;;;;;6.48;86.80;100810.78;5035960;28;20591;-73
2023/12/30 04:40:48;;;;;;;2.90;2.70;;;;;;;6.47;88.25;100809.09;5034268;28;20231;-73
2023/12/30 04:43:15;;;;;;;5.00;3.00;;;;;;;6.51;88.96;100809.69;5034315;28;20690;-73
2023/12/30 04:45:41;;;;;;;14.10;4.13;;;;;;;6.49;89.36;100804.53;5035772;28;20198;-73
2023/12/30 04:48:08;;;;;;;2.87;2.70;;;;;;;6.58;89.55;100808.22;5035694;28;20267;-73
2023/12/30 04:50:35;;;;;;;4.60;3.27;;;;;;;6.64;89.57;100815.69;5034109;28;20220;-73
2023/12/30 04:53:01;;;;;;;6.77;3.60;;;;;;;6.68;89.73;100817.13;5034117;28;20548;-73
2023/12/30 04:55:28;;;;;;;6.00;3.40;;;;;;;6.82;89.87;100824.84;5034670;28;20284;-73
2023/12/30 04:57:55;;;;;;;12.27;3.30;;;;;;;6.81;90.47;100825.81;5033981;28;20217;-73
2023/12/30 05:00:21;;;;;;;6.73;3.57;;;;;;;7.01;90.00;100824.16;5033909;28;20559;-73
2023/12/30 05:02:49;;;;;;;16.37;4.80;;;;;;;7.03;90.51;100830.22;5033975;28;20656;-73
2023/12/30 05:05:16;;;;;;;19.27;5.23;;;;;;;7.16;90.83;100826.41;5033911;28;20192;-73
2023/12/30 05:07:42;;;;;;;21.43;4.00;;;;;;;7.25;90.26;100825.66;5033874;28;20211;-73
2023/12/30 05:10:10;;;;;;;25.20;4.47;;;;;;;7.38;89.59;100822.81;5035193;28;20243;-73
2023/12/30 05:12:36;;;;;;;14.40;5.10;;;;;;;7.38;89.66;100827.28;5035005;28;20659;-73
2023/12/30 05:15:03;;;;;;;10.60;3.90;;;;;;;7.45;89.30;100828.44;5035494;28;20238;-73
2023/12/30 05:17:32;;;;;;;15.40;4.33;;;;;;;7.46;89.13;100824.81;5035132;28;20212;-73
2023/12/30 05:19:58;;;;;;;6.23;4.23;;;;;;;7.46;89.56;100836.31;5035260;28;20290;-73
2023/12/30 05:22:25;;;;;;;9.50;3.70;;;;;;;7.53;88.41;100829.47;5034812;28;20192;-73
2023/12/30 05:24:51;;;;;;;16.10;5.23;;;;;;;7.49;89.05;100843.16;5034774;28;20203;-73
2023/12/30 05:27:17;;;;;;;6.63;3.57;;;;;;;7.51;88.77;100850.03;5034763;28;20187;-73
2023/12/30 05:29:44;;;;;;;5.30;3.10;;;;;;;7.48;88.48;100858.28;5034644;28;20261;-73
2023/12/30 05:32:10;;;;;;;7.37;3.93;;;;;;;7.45;89.17;100855.88;5035206;28;20603;-73
2023/12/30 05:34:37;;;;;;;3.33;3.13;;;;;;;7.50;88.54;100858.16;5035704;28;20582;-73
2023/12/30 05:37:04;;;;;;;20.57;4.70;;;;;;;7.49;88.46;100854.66;5034513;28;20210;-73
2023/12/30 05:39:30;;;;;;;7.30;2.83;;;;;;;7.60;88.06;100864.38;5034453;28;20207;-73
2023/12/30 05:41:56;;;;;;;12.37;3.27;;;;;;;7.55;88.26;100864.81;5034417;28;20560;-73
2023/12/30 05:44:23;;;;;;;5.10;3.83;;;;;;;7.51;87.98;100863.34;5034092;28;20233;-73
2023/12/30 05:46:53;;;;;;;7.23;3.40;;;;;;;7.58;87.54;100861.88;5034358;28;20238;-73
2023/12/30 05:49:19;;;;;;;7.47;3.10;;;;;;;7.55;87.75;100863.94;5034243;28;20215;-73
2023/12/30 05:51:46;;;;;;;11.03;3.80;;;;;;;7.56;87.69;100860.28;5034288;28;20195;-73
2023/12/30 05:54:12;;;;;;;9.67;4.70;;;;;;;7.53;87.74;100866.72;5034780;28;20233;-73
2023/12/30 05:56:39;;;;;;;9.47;3.13;;;;;;;7.55;87.93;100866.59;5034393;28;20286;-73
2023/12/30 05:59:06;;;;;;;13.07;3.73;;;;;;;7.57;87.58;100862.84;5034028;28;20192;-73
2023/12/30 06:01:32;;;;;;;12.77;4.63;;;;;;;7.64;87.53;100873.78;5034126;28;20232;-73
2023/12/30 06:03:59;;;;;;;5.90;3.43;;;;;;;7.60;87.41;100881.19;5034134;28;20651;-73
2023/12/30 06:06:25;;;;;;;10.40;3.50;;;;;;;7.63;87.22;100880.97;5034278;28;20192;-73
2023/12/30 06:08:55;;;;;;;14.80;2.83;;;;;;;7.68;86.73;100885.91;5034216;28;20179;-73
2023/12/30 06:11:21;;;;;;;9.30;3.40;;;;;;;7.71;86.58;100898.94;5034725;28;20215;-72
2023/12/30 06:13:47;;;;;;;8.60;3.17;;;;;;;7.68;86.58;100902.69;5034009;28;20214;-72
2023/12/30 06:16:14;;;;;;;6.33;2.70;;;;;;;7.71;86.60;100897.13;5034067;28;20579;-73
2023/12/30 06:18:40;;;;;;;12.77;2.60;;;;;;;7.64;86.86;100903.06;5033756;28;20203;-72
2023/12/30 06:21:07;;;;;;;9.10;3.40;;;;;;;7.66;86.42;100907.31;5033709;28;20207;-73
2023/12/30 06:23:34;;;;;;;6.00;2.80;;;;;;;7.64;86.64;100911.03;5033957;28;20218;-73
2023/12/30 06:26:01;;;;;;;18.03;3.80;;;;;;;7.67;86.59;100908.16;5033666;28;20196;-73
2023/12/30 06:28:28;;;;;;;9.33;3.30;;;;;;;7.67;86.77;100918.78;5033891;28;20199;-73
2023/12/30 06:30:54;;;;;;;14.23;3.67;;;;;;;7.66;86.40;100909.13;5034077;28;20218;-73
2023/12/30 06:33:22;;;;;;;8.23;3.23;;;;;;;7.65;87.09;100905.59;5033610;28;20199;-73
2023/12/30 06:35:49;;;;;;;8.43;4.30;;;;;;;7.67;86.67;100921.44;5034095;28;20537;-73
2023/12/30 06:38:16;;;;;;;14.80;3.30;;;;;;;7.71;86.56;100906.91;5034001;28;20663;-73
2023/12/30 06:40:45;;;;;;;15.67;3.77;;;;;;;7.70;86.62;100911.38;5033364;28;20234;-73
2023/12/30 06:43:12;;;;;;;10.23;2.80;;;;;;;7.68;86.77;100909.84;5033427;28;20261;-73
2023/12/30 06:45:38;;;;;;;18.90;4.07;;;;;;;7.62;87.02;100910.34;5033336;28;20682;-73
2023/12/30 06:48:05;;;;;;;15.37;4.10;;;;;;;7.68;86.97;100912.50;5033654;28;20235;-73
2023/12/30 06:50:31;;;;;;;10.77;3.57;;;;;;;7.64;87.32;100911.03;5033279;28;20315;-73
2023/12/30 06:52:58;;;;;;;12.50;4.03;;;;;;;7.65;86.90;100920.72;5033906;28;20180;-73
2023/12/30 06:55:26;;;;;;;15.30;4.03;;;;;;;7.65;87.35;100928.69;5033226;28;20192;-72
2023/12/30 06:58:03;;;;;;;14.10;4.07;;;;;;;7.65;87.05;100923.38;5033439;28;20249;-73
2023/12/30 07:00:30;;;;;;;10.60;4.03;;;;;;;7.71;87.09;100922.88;5033404;28;20222;-73
2023/12/30 07:02:57;;;;;;;20.33;4.17;;;;;;;7.67;87.17;100930.28;5033202;28;20591;-73
2023/12/30 07:05:23;;;;;;;8.37;3.90;;;;;;;7.69;87.17;100932.78;5033488;28;20188;-73
2023/12/30 07:07:50;;;;;;;13.47;4.37;;;;;;;7.66;87.02;100935.72;5033425;28;20200;-73
2023/12/30 07:10:17;;;;;;;16.47;4.77;;;;;;;7.62;87.43;100932.47;5033581;28;20270;-73
2023/12/30 07:12:43;;;;;;;20.67;4.60;;;;;;;7.62;87.53;100936.94;5033041;28;20249;-72
2023/12/30 07:15:10;;;;;;;8.80;3.47;;;;;;;7.71;87.33;100946.84;5033119;28;20184;-72
2023/12/30 07:17:37;;;;;;;15.20;3.93;;;;;;;7.71;87.17;100947.69;5032817;28;20302;-72
2023/12/30 07:20:04;;;;;;;15.97;4.27;;;;;;;7.72;87.45;100946.69;5033103;28;20699;-73
2023/12/30 07:22:30;;;;;;;17.23;3.40;;;;;;;7.73;87.31;100948.38;5032962;28;20187;-73
2023/12/30 07:24:59;;;;;;;14.73;4.60;;;;;;;7.76;87.35;100955.28;5033165;28;20250;-73
2023/12/30 07:27:25;;;;;;;13.80;4.27;;;;;;;7.71;87.49;100950.34;5032966;28;20241;-72
2023/12/30 07:29:52;;;;;;;16.57;4.27;;;;;;;7.75;87.36;100956.25;5033085;28;20265;-72
2023/12/30 07:32:18;;;;;;;12.90;3.53;;;;;;;7.73;87.37;100951.03;5033173;28;20190;-72
2023/12/30 07:34:44;;;;;;;9.03;4.10;;;;;;;7.73;87.29;100958.19;5032856;28;20250;-72
2023/12/30 07:37:11;;;;;;;12.43;3.43;;;;;;;7.73;87.24;100960.84;5032773;28;20204;-72
2023/12/30 07:39:37;;;;;;;8.60;3.57;;;;;;;7.66;87.15;100965.84;5032967;28;20216;-72
2023/12/30 07:42:04;;;;;;;5.57;3.67;;;;;;;7.73;87.14;100961.69;5032815;28;20556;-72
2023/12/30 07:44:33;;;;;;;26.50;4.57;;;;;;;7.70;87.15;100963.75;5032817;28;20234;-72
2023/12/30 07:47:00;;;;;;;7.10;3.70;;;;;;;7.69;87.24;100968.22;5032782;28;20249;-72
2023/12/30 07:49:27;;;;;;;11.50;3.70;;;;;;;7.68;87.33;100968.38;5032924;28;20212;-72
2023/12/30 07:51:53;;;;;;;15.10;4.47;;;;;;;7.73;87.05;100982.97;5033043;28;20592;-72
2023/12/30 07:54:20;;;;;;;6.13;3.23;;;;;;;7.68;87.52;100981.69;5033295;28;20230;-72
2023/12/30 07:56:46;;;;;;;9.40;3.63;;;;;;;7.69;87.02;100967.38;5032616;28;20188;-72
2023/12/30 07:59:13;;;;;;;15.83;4.73;;;;;;;7.69;86.99;100973.56;5033420;28;20195;-72
2023/12/30 08:01:46;;;;;;;9.77;3.60;;;;;;;7.71;86.80;100979.63;5033218;28;20202;-72
2023/12/30 08:04:13;;;;;;;9.70;4.20;;;;;;;7.72;86.66;100981.28;5032929;28;20188;-72
2023/12/30 08:06:40;;;;;;;6.33;3.67;;;;;;;7.74;87.25;100987.34;5034712;28;20188;-72
2023/12/30 08:09:07;;;;;;;15.80;3.77;;;;;;;7.82;87.19;100984.03;5036180;28;20184;-72
2023/12/30 08:11:35;;;;;;;13.03;3.20;;;;;;;7.86;86.80;100992.59;5036192;28;20599;-72
2023/12/30 08:14:20;;;;;;;6.10;3.20;;;;;;;7.88;86.85;100993.31;5036469;28;20539;-72
2023/12/30 08:16:46;;;;;;;4.63;2.73;;;;;;;7.85;87.13;100997.06;5035844;28;20195;-72
2023/12/30 08:19:13;;;;;;;7.20;3.73;;;;;;;7.83;86.88;100988.38;5035966;28;20187;-73
2023/12/30 08:21:39;;;;;;;9.73;2.73;;;;;;;7.79;87.33;100987.81;5036016;28;20180;-73
2023/12/30 08:24:07;;;;;;;8.60;3.27;;;;;;;7.90;87.46;100996.69;5035955;28;20191;-72
2023/12/30 08:26:34;;;;;;;8.17;3.53;;;;;;;7.87;87.44;100995.16;5036062;28;20210;-73
2023/12/30 08:29:00;;;;;;;11.60;3.67;;;;;;;7.92;87.92;101000.94;5036091;28;20181;-73
2023/12/30 08:31:27;;;;;;;13.90;3.53;;;;;;;8.02;87.25;101006.34;5036042;28;20180;-72
2023/12/30 08:33:53;;;;;;;7.57;3.27;;;;;;;8.01;87.08;101000.16;5036067;28;20173;-72
2023/12/30 08:36:21;;;;;;;21.47;3.87;;;;;;;7.99;87.36;100998.59;5035765;28;20202;-72
2023/12/30 08:38:48;;;;;;;25.00;3.63;;;;;;;7.98;87.17;101003.06;5035942;28;20609;-72
2023/12/30 08:41:14;;;;;;;5.40;3.30;;;;;;;7.97;87.44;101000.56;5035585;28;20226;-72
2023/12/30 08:43:42;;;;;;;14.37;4.83;;;;;;;7.96;87.32;100994.38;5035547;28;20188;-72
2023/12/30 08:46:09;;;;;;;12.50;4.07;;;;;;;7.99;87.75;100994.13;5035496;28;20192;-72
2023/12/30 08:48:36;;;;;;;19.17;4.23;;;;;;;8.03;87.89;100992.88;5035519;28;20615;-72
2023/12/30 08:51:03;;;;;;;9.03;3.77;;;;;;;8.05;87.40;100998.94;5036348;28;20613;-72
2023/12/30 08:53:30;;;;;;;17.43;3.90;;;;;;;8.09;86.74;101003.03;5034192;28;20184;-72
2023/12/30 08:55:57;;;;;;;9.13;3.53;;;;;;;8.04;87.72;101018.53;5035691;28;20578;-72
2023/12/30 08:58:24;;;;;;;10.40;3.80;;;;;;;8.11;87.25;101013.53;5035244;28;20196;-72
2023/12/30 09:00:52;;;;;;;21.60;4.00;;;;;;;8.10;87.22;101011.88;5035229;28;20219;-72
2023/12/30 09:03:19;;;;;;;6.13;3.70;;;;;;;8.10;87.07;101017.19;5035719;28;20191;-72
2023/12/30 09:05:46;;;;;;;13.23;5.00;;;;;;;8.08;86.68;101021.78;5035193;28;20238;-72
2023/12/30 09:08:12;;;;;;;12.07;4.47;;;;;;;8.17;86.40;101029.84;5035390;28;20633;-72
2023/12/30 09:10:39;;;;;;;12.43;4.80;;;;;;;8.23;85.81;101042.63;5035287;28;20635;-72
2023/12/30 09:13:05;;;;;;;8.73;3.87;;;;;;;8.24;85.40;101036.34;5034136;28;20279;-72
2023/12/30 09:15:34;;;;;;;18.97;5.00;;;;;;;8.16;85.91;101035.31;5034981;28;20191;-72
2023/12/30 09:18:00;;;;;;;10.90;4.17;;;;;;;8.16;85.72;101041.47;5033806;28;20220;-72
2023/12/30 09:20:27;;;;;;;6.90;3.67;;;;;;;8.15;86.41;101041.59;5034787;28;20246;-72
2023/12/30 09:22:53;;;;;;;16.77;4.10;;;;;;;8.14;86.36;101056.75;5034855;28;20188;-72
2023/12/30 09:25:19;;;;;;;8.23;4.10;;;;;;;8.15;86.30;101047.75;5035079;28;20188;-72
2023/12/30 09:27:46;;;;;;;17.37;4.00;;;;;;;8.19;86.27;101056.34;5034989;28;20188;-72
2023/12/30 09:30:14;;;;;;;11.83;5.13;;;;;;;8.25;86.15;101067.34;5034896;28;20242;-72
2023/12/30 09:32:40;;;;;;;13.20;4.70;;;;;;;8.21;86.08;101063.25;5034955;28;20557;-72
2023/12/30 09:35:07;;;;;;;10.70;4.30;;;;;;;8.26;86.08;101070.84;5034825;28;20196;-72
2023/12/30 09:37:34;;;;;;;10.47;3.87;;;;;;;8.34;85.76;101062.25;5034488;28;20208;-72
2023/12/30 09:40:01;;;;;;;7.33;3.93;;;;;;;8.23;85.84;101060.47;5034459;28;20212;-72
2023/12/30 09:42:27;;;;;;;22.53;4.37;;;;;;;8.24;86.61;101056.81;5034436;28;20199;-72
2023/12/30 09:44:54;;;;;;;16.23;4.27;;;;;;;8.32;86.58;101069.53;5034329;28;20228;-72
2023/12/30 09:47:23;;;;;;;14.57;3.97;;;;;;;8.30;85.88;101071.47;5034376;28;20192;-72
2023/12/30 09:49:50;;;;;;;16.20;4.50;;;;;;;8.33;86.10;101076.53;5034589;28;20218;-72
2023/12/30 09:52:17;;;;;;;18.13;6.70;;;;;;;8.25;86.61;101070.00;5034571;28;20172;-72
2023/12/30 09:54:44;;;;;;;13.47;5.13;;;;;;;8.34;86.68;101067.56;5034872;28;20643;-72
2023/12/30 09:57:15;;;;;;;11.20;4.90;;;;;;;8.41;86.98;101076.72;5034397;28;20263;-72
2023/12/30 09:59:43;;;;;;;14.70;4.73;;;;;;;8.45;86.69;101071.00;5034085;28;20208;-72
2023/12/30 10:02:12;;;;;;;14.13;5.23;;;;;;;8.55;85.96;101081.75;5034123;28;20192;-72
2023/12/30 10:04:38;;;;;;;12.23;5.53;;;;;;;8.48;85.85;101076.09;5034041;28;20765;-72
2023/12/30 10:07:05;;;;;;;22.13;5.33;;;;;;;8.48;86.05;101077.94;5033884;28;20571;-72
2023/12/30 10:09:32;;;;;;;16.83;5.50;;;;;;;8.49;86.34;101071.59;5034312;28;20714;-72
2023/12/30 10:11:58;;;;;;;10.57;5.83;;;;;;;8.50;86.63;101071.47;5034463;28;20187;-72
2023/12/30 10:14:25;;;;;;;16.67;5.30;;;;;;;8.53;86.57;101073.88;5034462;28;20180;-72
2023/12/30 10:16:52;;;;;;;11.87;5.33;;;;;;;8.61;86.60;101076.72;5033727;28;20637;-72
2023/12/30 10:19:18;;;;;;;21.10;6.80;;;;;;;8.54;86.72;101072.91;5033936;28;20196;-72
2023/12/30 10:21:45;;;;;;;15.47;6.47;;;;;;;8.62;86.49;101070.44;5034312;28;20188;-72
2023/12/30 10:24:11;;;;;;;13.30;5.93;;;;;;;8.64;86.45;101070.31;5033709;28;20726;-76
2023/12/30 10:26:39;;;;;;;6.93;5.10;;;;;;;8.71;85.87;101061.66;5033676;28;20188;-73
2023/12/30 10:29:06;;;;;;;19.07;5.73;;;;;;;8.74;86.41;101055.25;5032611;28;20176;-74
2023/12/30 10:31:33;;;;;;;20.07;6.03;;;;;;;8.73;86.17;101040.22;5033656;28;20233;-72
2023/12/30 10:34:01;;;;;;;13.03;5.83;;;;;;;8.78;85.81;101043.34;5033610;28;20186;-72
2023/12/30 10:36:28;;;;;;;19.03;5.10;;;;;;;8.81;85.94;101042.22;5033527;28;20187;-72
2023/12/30 10:38:54;;;;;;;15.43;5.63;;;;;;;8.81;85.45;101040.38;5033680;28;20222;-72
2023/12/30 10:41:21;;;;;;;12.43;5.43;;;;;;;8.90;85.18;101039.59;5033380;28;20213;-72
2023/12/30 10:43:47;;;;;;;9.87;5.80;;;;;;;8.86;85.00;101042.66;5033407;28;20200;-74
2023/12/30 10:46:18;;;;;;;24.57;5.43;;;;;;;8.82;85.08;101046.56;5034025;28;20191;-74
2023/12/30 10:48:55;;;;;;;14.50;5.83;;;;;;;8.81;84.38;101048.38;5033599;28;20180;-74
2023/12/30 10:51:28;;;;;;;6.87;4.50;;;;;;;8.76;84.14;101042.59;5033261;28;20568;-73
2023/12/30 10:54:05;;;;;;;14.27;5.10;;;;;;;8.74;84.20;101044.56;5033667;28;20184;-74
2023/12/30 10:56:39;;;;;;;11.87;5.13;;;;;;;8.70;84.49;101043.13;5033623;28;20652;-72
2023/12/30 10:59:07;;;;;;;21.70;5.40;;;;;;;8.81;84.53;101040.38;5033378;28;20203;-72
2023/12/30 11:01:35;;;;;;;9.30;5.23;;;;;;;8.91;83.78;101051.13;5033375;28;20192;-72
2023/12/30 11:04:11;;;;;;;12.93;5.33;;;;;;;8.94;84.16;101048.16;5033409;28;20733;-72
2023/12/30 11:06:54;;;;;;;16.83;5.67;;;;;;;8.90;83.85;101034.25;5031934;28;20650;-72
2023/12/30 11:09:27;;;;;;;13.83;5.73;;;;;;;8.92;83.22;101031.44;5033341;28;20200;-72
2023/12/30 11:11:56;;;;;;;10.40;4.57;;;;;;;8.88;84.21;101046.88;5033519;28;20558;-72
2023/12/30 11:14:23;;;;;;;17.23;5.70;;;;;;;8.86;84.04;101040.00;5033614;28;20183;-72
2023/12/30 11:16:52;;;;;;;14.73;5.13;;;;;;;8.89;84.33;101048.56;5033163;28;20196;-72
2023/12/30 11:19:29;;;;;;;15.67;5.60;;;;;;;8.98;83.82;101045.09;5032990;28;20196;-72
2023/12/30 11:22:01;;;;;;;17.17;6.00;;;;;;;8.97;84.25;101045.22;5033001;28;20234;-72
2023/12/30 11:24:28;;;;;;;13.87;6.23;;;;;;;9.01;83.77;101036.81;5032981;28;20187;-72
2023/12/30 11:26:55;;;;;;;12.73;5.77;;;;;;;9.01;83.75;101041.31;5032945;28;20192;-72
2023/12/30 11:29:25;;;;;;;17.10;6.40;;;;;;;9.03;84.71;101044.72;5032895;28;20221;-72